Time;durP1;ratioP1;P1;durP2;ratioP2;P2;SDS_P1;SDS_P2;PMS_P1;PMS_P2;Temp;Humidity;BMP_temperature;BMP_pressure;BME280_temperature;BME280_humidity;BME280_pressure;Samples;Min_cycle;Max_cycle;Signal;HPM_P1;HPM_P2
2022/05/06 00:02:15;;;;;;;19.17;3.33;;;;;;;;;;5082744;28;20028;-75
2022/05/06 00:04:43;;;;;;;12.48;2.70;;;;;;;;;;5083609;28;20028;-74
2022/05/06 00:07:11;;;;;;;15.90;3.50;;;;;;;;;;5083620;28;20111;-74
2022/05/06 00:09:38;;;;;;;11.95;3.00;;;;;;;;;;5083676;28;20054;-74
2022/05/06 00:12:05;;;;;;;12.15;2.78;;;;;;;;;;5075011;28;20666;-75
2022/05/06 00:14:31;;;;;;;7.63;2.83;;;;;;;;;;5083959;28;20051;-74
2022/05/06 00:16:57;;;;;;;12.23;2.88;;;;;;;;;;5083533;28;20028;-74
2022/05/06 00:19:23;;;;;;;8.85;3.20;;;;;;;;;;5083662;28;20210;-74
2022/05/06 00:21:49;;;;;;;14.02;3.35;;;;;;;;;;5082821;28;20089;-75
2022/05/06 00:24:15;;;;;;;13.35;3.25;;;;;;;;;;5083827;28;20642;-75
2022/05/06 00:26:42;;;;;;;12.57;3.15;;;;;;;;;;5083669;28;20032;-74
2022/05/06 00:29:09;;;;;;;12.90;3.20;;;;;;;;;;5083466;28;20517;-74
2022/05/06 00:31:35;;;;;;;13.57;3.00;;;;;;;;;;5083120;28;20547;-75
2022/05/06 00:34:01;;;;;;;9.10;2.63;;;;;;;;;;5082928;28;20033;-74
2022/05/06 00:36:27;;;;;;;14.68;3.30;;;;;;;;;;5083329;28;20024;-74
2022/05/06 00:38:54;;;;;;;16.42;3.22;;;;;;;;;;5083628;28;20032;-74
2022/05/06 00:41:21;;;;;;;14.77;3.20;;;;;;;;;;5076924;28;20570;-74
2022/05/06 00:43:47;;;;;;;13.43;3.20;;;;;;;;;;5083591;28;20020;-75
2022/05/06 00:46:15;;;;;;;15.10;3.38;;;;;;;;;;5082137;28;20032;-75
2022/05/06 00:48:43;;;;;;;11.20;2.47;;;;;;;;;;5080792;28;20018;-73
2022/05/06 00:51:09;;;;;;;15.40;3.05;;;;;;;;;;5088081;28;20490;-73
2022/05/06 00:53:36;;;;;;;8.32;2.75;;;;;;;;;;5087856;28;20048;-74
2022/05/06 00:56:02;;;;;;;10.52;3.00;;;;;;;;;;5087891;28;20032;-72
2022/05/06 00:58:30;;;;;;;17.15;3.63;;;;;;;;;;5086777;28;20020;-73
2022/05/06 01:00:56;;;;;;;18.63;3.60;;;;;;;;;;5088172;28;20062;-75
2022/05/06 01:03:22;;;;;;;15.45;3.03;;;;;;;;;;5088215;28;20016;-72
2022/05/06 01:05:50;;;;;;;15.32;3.15;;;;;;;;;;5087360;28;20032;-73
2022/05/06 01:08:16;;;;;;;12.18;3.88;;;;;;;;;;5087607;28;20062;-74
2022/05/06 01:10:43;;;;;;;14.23;3.10;;;;;;;;;;5087352;28;20028;-75
2022/05/06 01:13:09;;;;;;;10.18;2.67;;;;;;;;;;5087249;28;20051;-74
2022/05/06 01:15:36;;;;;;;13.90;2.72;;;;;;;;;;5087656;28;20549;-72
2022/05/06 01:18:02;;;;;;;17.20;3.38;;;;;;;;;;5087374;28;20127;-73
2022/05/06 01:20:29;;;;;;;13.85;3.30;;;;;;;;;;5087707;28;20020;-75
2022/05/06 01:22:59;;;;;;;16.27;3.00;;;;;;;;;;5087607;28;20032;-74
2022/05/06 01:25:26;;;;;;;12.20;2.78;;;;;;;;;;5080201;28;20024;-73
2022/05/06 01:27:55;;;;;;;11.70;3.10;;;;;;;;;;5087261;28;20490;-73
2022/05/06 01:30:34;;;;;;;13.75;3.58;;;;;;;;;;5087210;28;20032;-73
2022/05/06 01:33:01;;;;;;;7.50;2.55;;;;;;;;;;5087203;28;20647;-73
2022/05/06 01:35:28;;;;;;;12.20;3.35;;;;;;;;;;5085563;28;20032;-73
2022/05/06 01:37:57;;;;;;;14.85;3.38;;;;;;;;;;5079087;28;20107;-73
2022/05/06 01:40:25;;;;;;;13.65;2.80;;;;;;;;;;5081416;28;20036;-73
2022/05/06 01:42:52;;;;;;;17.25;3.67;;;;;;;;;;5082671;28;20024;-73
2022/05/06 01:45:19;;;;;;;10.35;2.97;;;;;;;;;;5085057;28;20031;-73
2022/05/06 01:47:46;;;;;;;12.70;2.75;;;;;;;;;;5084411;28;20028;-73
2022/05/06 01:50:13;;;;;;;11.77;2.75;;;;;;;;;;5083161;28;20040;-74
2022/05/06 01:52:41;;;;;;;16.80;2.97;;;;;;;;;;5073149;28;20036;-73
2022/05/06 01:55:07;;;;;;;13.05;3.15;;;;;;;;;;5080655;28;20043;-73
2022/05/06 01:57:34;;;;;;;14.45;3.70;;;;;;;;;;5082088;28;20454;-73
2022/05/06 02:00:00;;;;;;;16.90;3.55;;;;;;;;;;5081806;28;20039;-74
2022/05/06 02:02:26;;;;;;;12.18;2.80;;;;;;;;;;5081922;28;20115;-74
2022/05/06 02:07:37;;;;;;;10.20;2.75;;;;;;;;;;5080697;28;20178;-74
2022/05/06 02:10:03;;;;;;;14.02;3.08;;;;;;;;;;5082133;28;20028;-73
2022/05/06 02:12:29;;;;;;;18.10;3.15;;;;;;;;;;5081226;28;20051;-73
2022/05/06 02:14:57;;;;;;;13.57;3.15;;;;;;;;;;5073481;28;20047;-73
2022/05/06 02:17:23;;;;;;;13.68;3.53;;;;;;;;;;5081686;28;20035;-73
2022/05/06 02:19:49;;;;;;;13.23;3.33;;;;;;;;;;5081653;28;20032;-74
2022/05/06 02:22:15;;;;;;;15.20;2.80;;;;;;;;;;5082134;28;20472;-73
2022/05/06 02:24:42;;;;;;;14.68;3.72;;;;;;;;;;5080957;28;20047;-76
2022/05/06 02:27:12;;;;;;;9.00;3.58;;;;;;;;;;5081657;28;20077;-73
2022/05/06 02:29:38;;;;;;;17.65;3.33;;;;;;;;;;5081602;28;20031;-74
2022/05/06 02:34:50;;;;;;;13.35;2.85;;;;;;;;;;5081595;28;20031;-73
2022/05/06 02:37:16;;;;;;;14.95;3.97;;;;;;;;;;5081225;28;20052;-74
2022/05/06 02:39:42;;;;;;;12.77;3.15;;;;;;;;;;5081321;28;20032;-76
2022/05/06 02:42:08;;;;;;;19.92;3.47;;;;;;;;;;5073773;28;20032;-73
2022/05/06 02:44:35;;;;;;;12.82;3.17;;;;;;;;;;5080917;28;20394;-74
2022/05/06 02:47:01;;;;;;;12.90;3.55;;;;;;;;;;5080867;28;20466;-73
2022/05/06 02:49:27;;;;;;;20.73;4.30;;;;;;;;;;5081497;28;20030;-73
2022/05/06 02:51:53;;;;;;;18.33;4.00;;;;;;;;;;5081017;28;20062;-73
2022/05/06 02:54:21;;;;;;;17.42;3.80;;;;;;;;;;5079497;28;20036;-73
2022/05/06 02:56:49;;;;;;;15.15;4.10;;;;;;;;;;5081729;28;20032;-74
2022/05/06 02:59:15;;;;;;;17.02;4.10;;;;;;;;;;5080934;28;20031;-74
2022/05/06 03:01:41;;;;;;;14.52;4.40;;;;;;;;;;5081468;28;20032;-73
2022/05/06 03:04:11;;;;;;;16.05;4.18;;;;;;;;;;5081276;28;20674;-74
2022/05/06 03:06:38;;;;;;;14.75;3.92;;;;;;;;;;5081597;28;20040;-73
2022/05/06 03:09:04;;;;;;;17.80;3.67;;;;;;;;;;5080931;28;20028;-73
2022/05/06 03:11:30;;;;;;;20.10;5.00;;;;;;;;;;5080852;28;20040;-74
2022/05/06 03:13:57;;;;;;;23.75;4.07;;;;;;;;;;5081580;28;20049;-73
2022/05/06 03:16:23;;;;;;;15.45;4.50;;;;;;;;;;5081328;28;20197;-73
2022/05/06 03:18:49;;;;;;;22.30;4.10;;;;;;;;;;5077058;28;20505;-73
2022/05/06 03:21:15;;;;;;;14.43;4.70;;;;;;;;;;5078579;28;20039;-73
2022/05/06 03:23:41;;;;;;;17.10;5.15;;;;;;;;;;5078599;28;20415;-75
2022/05/06 03:26:07;;;;;;;14.85;4.32;;;;;;;;;;5078368;28;20036;-75
2022/05/06 03:28:34;;;;;;;15.27;4.13;;;;;;;;;;5079027;28;20031;-78
2022/05/06 03:31:00;;;;;;;20.10;4.93;;;;;;;;;;5078063;28;20047;-73
2022/05/06 03:33:28;;;;;;;21.30;4.70;;;;;;;;;;5078431;28;20473;-73
2022/05/06 03:35:55;;;;;;;19.45;3.75;;;;;;;;;;5078123;28;20081;-72
2022/05/06 03:38:21;;;;;;;19.38;4.78;;;;;;;;;;5080461;28;20063;-73
2022/05/06 03:40:47;;;;;;;17.50;4.32;;;;;;;;;;5081404;28;20028;-73
2022/05/06 03:43:13;;;;;;;20.17;4.55;;;;;;;;;;5079490;28;20027;-73
2022/05/06 03:45:39;;;;;;;19.63;4.43;;;;;;;;;;5081813;28;20031;-72
2022/05/06 03:48:06;;;;;;;17.70;4.20;;;;;;;;;;5081100;28;20043;-73
2022/05/06 03:53:17;;;;;;;32.85;5.55;;;;;;;;;;5078707;28;20046;-74
2022/05/06 03:55:43;;;;;;;19.23;4.80;;;;;;;;;;5078751;28;20539;-73
2022/05/06 03:58:09;;;;;;;19.33;5.07;;;;;;;;;;5082211;28;20541;-73
2022/05/06 04:00:35;;;;;;;18.35;4.32;;;;;;;;;;5082170;28;20471;-76
2022/05/06 04:03:01;;;;;;;22.23;4.57;;;;;;;;;;5081203;28;20186;-73
2022/05/06 04:05:27;;;;;;;19.02;4.90;;;;;;;;;;5081733;28;20051;-73
2022/05/06 04:07:54;;;;;;;31.27;6.22;;;;;;;;;;5078584;28;20134;-73
2022/05/06 04:10:20;;;;;;;23.98;5.55;;;;;;;;;;5081786;28;20111;-74
2022/05/06 04:12:47;;;;;;;25.23;5.97;;;;;;;;;;5081826;28;20188;-73
2022/05/06 04:15:13;;;;;;;35.63;6.80;;;;;;;;;;5081762;28;20104;-73
2022/05/06 04:17:39;;;;;;;36.95;7.20;;;;;;;;;;5081495;28;20535;-74
2022/05/06 04:25:35;;;;;;;27.02;6.60;;;;;;;;;;5080897;28;20563;-74
2022/05/06 04:28:02;;;;;;;31.23;6.50;;;;;;;;;;5081203;28;20038;-72
2022/05/06 04:30:28;;;;;;;29.55;5.97;;;;;;;;;;5078115;28;20031;-73
2022/05/06 04:32:54;;;;;;;34.08;7.35;;;;;;;;;;5081664;28;20880;-72
2022/05/06 04:35:20;;;;;;;32.50;7.07;;;;;;;;;;5081671;28;20028;-73
2022/05/06 04:37:47;;;;;;;40.45;8.20;;;;;;;;;;5081042;28;20141;-73
2022/05/06 04:40:13;;;;;;;42.50;8.38;;;;;;;;;;5081363;28;20362;-73
2022/05/06 04:42:39;;;;;;;30.85;8.00;;;;;;;;;;5080696;28;20024;-73
2022/05/06 04:45:06;;;;;;;37.63;6.55;;;;;;;;;;5081280;28;20067;-73
2022/05/06 04:47:34;;;;;;;41.00;8.20;;;;;;;;;;5081025;28;20038;-73
2022/05/06 04:50:00;;;;;;;56.15;6.95;;;;;;;;;;5080799;28;20627;-74
2022/05/06 04:52:27;;;;;;;38.92;7.43;;;;;;;;;;5081042;28;20127;-73
2022/05/06 04:54:53;;;;;;;32.28;7.22;;;;;;;;;;5080881;28;20030;-73
2022/05/06 04:57:19;;;;;;;33.10;7.00;;;;;;;;;;5081006;28;20039;-73
2022/05/06 04:59:47;;;;;;;37.17;7.35;;;;;;;;;;5080514;28;20513;-73
2022/05/06 05:02:14;;;;;;;38.92;8.27;;;;;;;;;;5080586;28;20036;-73
2022/05/06 05:04:41;;;;;;;34.78;7.75;;;;;;;;;;5080521;28;20093;-73
2022/05/06 05:07:08;;;;;;;41.95;7.40;;;;;;;;;;5079037;28;20520;-73
2022/05/06 05:09:34;;;;;;;45.67;8.55;;;;;;;;;;5079919;28;20032;-72
2022/05/06 05:12:00;;;;;;;45.55;7.35;;;;;;;;;;5080352;28;20511;-73
2022/05/06 05:14:26;;;;;;;33.30;8.40;;;;;;;;;;5080672;28;20551;-73
2022/05/06 05:16:52;;;;;;;45.40;9.15;;;;;;;;;;5080425;28;20035;-72
2022/05/06 05:19:18;;;;;;;37.72;8.77;;;;;;;;;;5079435;28;20024;-73
2022/05/06 05:21:44;;;;;;;49.15;9.30;;;;;;;;;;5080480;28;20039;-73
2022/05/06 05:24:11;;;;;;;47.08;9.48;;;;;;;;;;5079981;28;20032;-73
2022/05/06 05:26:37;;;;;;;55.10;9.15;;;;;;;;;;5080521;28;20032;-72
2022/05/06 05:29:04;;;;;;;42.13;9.02;;;;;;;;;;5079923;28;20486;-73
2022/05/06 05:31:30;;;;;;;61.60;10.25;;;;;;;;;;5074876;28;20036;-74
2022/05/06 05:33:56;;;;;;;48.05;9.13;;;;;;;;;;5080056;28;20036;-73
2022/05/06 05:36:23;;;;;;;36.10;7.65;;;;;;;;;;5080240;28;20023;-73
2022/05/06 05:38:49;;;;;;;40.65;8.15;;;;;;;;;;5079658;28;20023;-72
2022/05/06 05:41:15;;;;;;;48.20;9.95;;;;;;;;;;5080603;28;20077;-73
2022/05/06 05:49:11;;;;;;;47.88;8.85;;;;;;;;;;5079577;28;20058;-72
2022/05/06 05:51:37;;;;;;;50.53;8.55;;;;;;;;;;5079460;28;20395;-73
2022/05/06 05:54:04;;;;;;;42.08;9.38;;;;;;;;;;5078487;28;20024;-73
2022/05/06 05:56:30;;;;;;;42.67;8.88;;;;;;;;;;5079877;28;20024;-72
2022/05/06 05:58:56;;;;;;;41.47;9.10;;;;;;;;;;5079837;28;20020;-73
2022/05/06 06:01:22;;;;;;;45.63;8.88;;;;;;;;;;5078050;28;20024;-75
2022/05/06 06:03:48;;;;;;;35.03;8.05;;;;;;;;;;5079656;28;20047;-74
2022/05/06 06:06:14;;;;;;;42.42;8.75;;;;;;;;;;5078894;28;20085;-73
2022/05/06 06:08:40;;;;;;;30.33;7.82;;;;;;;;;;5077570;28;20480;-73
2022/05/06 06:11:07;;;;;;;49.80;8.45;;;;;;;;;;5079600;28;20107;-73
2022/05/06 06:13:33;;;;;;;47.67;9.82;;;;;;;;;;5079056;28;20024;-74
2022/05/06 06:15:59;;;;;;;54.55;10.10;;;;;;;;;;5079289;28;20032;-72
2022/05/06 06:18:27;;;;;;;51.33;9.32;;;;;;;;;;5079488;28;20035;-73
2022/05/06 06:20:56;;;;;;;35.55;8.60;;;;;;;;;;5079680;28;20031;-72
2022/05/06 06:23:23;;;;;;;47.30;10.10;;;;;;;;;;5079500;28;20456;-73
2022/05/06 06:25:49;;;;;;;37.15;10.00;;;;;;;;;;5078863;28;20031;-73
2022/05/06 06:28:15;;;;;;;37.20;9.48;;;;;;;;;;5079154;28;20032;-73
2022/05/06 06:30:42;;;;;;;40.72;10.02;;;;;;;;;;5079198;28;20067;-74
2022/05/06 06:33:08;;;;;;;40.97;9.27;;;;;;;;;;5079232;28;20305;-74
2022/05/06 06:35:35;;;;;;;37.65;9.18;;;;;;;;;;5079020;28;20020;-73
2022/05/06 06:38:01;;;;;;;40.03;8.45;;;;;;;;;;5078727;28;20619;-73
2022/05/06 06:40:27;;;;;;;49.65;8.88;;;;;;;;;;5079292;28;20020;-73
2022/05/06 06:42:54;;;;;;;44.45;8.60;;;;;;;;;;5078841;28;20027;-73
2022/05/06 06:45:20;;;;;;;41.33;9.60;;;;;;;;;;5078993;28;20081;-74
2022/05/06 06:47:46;;;;;;;32.25;8.52;;;;;;;;;;5079489;28;20028;-73
2022/05/06 06:50:12;;;;;;;40.65;8.15;;;;;;;;;;5078490;28;20403;-73
2022/05/06 06:52:38;;;;;;;36.45;8.15;;;;;;;;;;5079587;28;20578;-73
2022/05/06 06:55:05;;;;;;;38.30;7.90;;;;;;;;;;5078974;28;20039;-73
2022/05/06 06:57:31;;;;;;;35.03;7.65;;;;;;;;;;5078479;28;20044;-74
2022/05/06 06:59:57;;;;;;;41.22;8.32;;;;;;;;;;5079567;28;20031;-74
2022/05/06 07:02:23;;;;;;;33.35;7.85;;;;;;;;;;5078673;28;20031;-74
2022/05/06 07:04:51;;;;;;;26.60;6.88;;;;;;;;;;5079379;28;20039;-73
2022/05/06 07:12:46;;;;;;;35.60;8.38;;;;;;;;;;5071976;28;20047;-74
2022/05/06 07:15:12;;;;;;;40.03;7.43;;;;;;;;;;5078938;28;20107;-74
2022/05/06 07:17:39;;;;;;;42.30;8.55;;;;;;;;;;5078888;28;20046;-72
2022/05/06 07:20:05;;;;;;;26.25;6.30;;;;;;;;;;5078937;28;20032;-73
2022/05/06 07:22:31;;;;;;;42.58;8.75;;;;;;;;;;5079217;28;20036;-73
2022/05/06 07:24:57;;;;;;;42.95;8.13;;;;;;;;;;5077599;28;20034;-73
2022/05/06 07:27:23;;;;;;;29.88;6.22;;;;;;;;;;5078430;28;20474;-73
2022/05/06 07:29:49;;;;;;;42.35;7.10;;;;;;;;;;5078689;28;20075;-74
2022/05/06 07:32:18;;;;;;;37.42;8.23;;;;;;;;;;5081133;28;20048;-73
2022/05/06 07:34:44;;;;;;;41.17;8.32;;;;;;;;;;5082061;28;20035;-73
2022/05/06 07:37:10;;;;;;;39.97;8.50;;;;;;;;;;5082863;28;20039;-73
2022/05/06 07:39:36;;;;;;;44.28;7.85;;;;;;;;;;5080048;28;20024;-75
2022/05/06 07:42:02;;;;;;;32.20;8.13;;;;;;;;;;5080690;28;20120;-75
2022/05/06 07:44:29;;;;;;;51.03;9.27;;;;;;;;;;5082361;28;20510;-76
2022/05/06 07:46:55;;;;;;;35.45;8.02;;;;;;;;;;5080278;28;20677;-76
2022/05/06 07:49:23;;;;;;;39.10;9.25;;;;;;;;;;5081327;28;20024;-75
2022/05/06 07:51:50;;;;;;;29.90;6.93;;;;;;;;;;5081036;28;20032;-76
2022/05/06 07:54:17;;;;;;;31.52;7.25;;;;;;;;;;5082039;28;20051;-76
2022/05/06 07:56:43;;;;;;;33.90;7.07;;;;;;;;;;5080372;28;20038;-76
2022/05/06 07:59:09;;;;;;;36.00;7.85;;;;;;;;;;5075868;28;20031;-76
2022/05/06 08:04:37;;;;;;;27.92;6.90;;;;;;;;;;5081124;28;20570;-77
2022/05/06 08:07:05;;;;;;;24.58;6.72;;;;;;;;;;5072377;28;20048;-76
2022/05/06 08:09:31;;;;;;;37.78;7.13;;;;;;;;;;5081689;28;20055;-76
2022/05/06 08:11:57;;;;;;;21.85;5.93;;;;;;;;;;5081829;28;20024;-76
2022/05/06 08:14:23;;;;;;;31.85;6.60;;;;;;;;;;5080822;28;20032;-75
2022/05/06 08:16:50;;;;;;;33.42;6.78;;;;;;;;;;5081316;28;20024;-76
2022/05/06 08:19:17;;;;;;;56.42;7.45;;;;;;;;;;5081274;28;20067;-76
2022/05/06 08:21:43;;;;;;;36.03;7.22;;;;;;;;;;5080876;28;20028;-76
2022/05/06 08:24:09;;;;;;;33.40;7.43;;;;;;;;;;5081160;28;20028;-75
2022/05/06 08:26:36;;;;;;;24.50;5.85;;;;;;;;;;5074481;28;20396;-77
2022/05/06 08:29:03;;;;;;;31.98;7.10;;;;;;;;;;5070242;28;20043;-76
2022/05/06 08:31:32;;;;;;;24.55;5.88;;;;;;;;;;5076433;28;20036;-75
2022/05/06 08:33:58;;;;;;;31.73;6.13;;;;;;;;;;5080661;28;20039;-74
2022/05/06 08:36:24;;;;;;;30.77;7.32;;;;;;;;;;5081103;28;20028;-75
2022/05/06 08:38:50;;;;;;;36.60;7.03;;;;;;;;;;5080493;28;20028;-75
2022/05/06 08:41:17;;;;;;;34.83;7.38;;;;;;;;;;5081354;28;20093;-75
2022/05/06 08:43:43;;;;;;;30.50;5.82;;;;;;;;;;5079567;28;20031;-75
2022/05/06 08:51:40;;;;;;;24.75;6.78;;;;;;;;;;5080349;28;20065;-75
2022/05/06 08:54:07;;;;;;;33.47;7.13;;;;;;;;;;5080361;28;20543;-75
2022/05/06 08:56:33;;;;;;;27.45;6.10;;;;;;;;;;5080349;28;20027;-75
2022/05/06 08:58:59;;;;;;;35.60;7.45;;;;;;;;;;5080695;28;20028;-75
2022/05/06 09:01:25;;;;;;;28.88;6.10;;;;;;;;;;5080317;28;20020;-75
2022/05/06 09:03:52;;;;;;;37.15;6.97;;;;;;;;;;5080643;28;20035;-75
2022/05/06 09:06:22;;;;;;;22.05;6.63;;;;;;;;;;5070978;28;20061;-76
2022/05/06 09:08:50;;;;;;;31.60;6.45;;;;;;;;;;5078900;28;20139;-77
2022/05/06 09:14:08;;;;;;;33.75;6.75;;;;;;;;;;5079985;28;20047;-75
2022/05/06 09:16:40;;;;;;;29.27;5.97;;;;;;;;;;5080122;28;20055;-75
2022/05/06 09:19:10;;;;;;;32.40;7.55;;;;;;;;;;5080267;28;20392;-75
2022/05/06 09:21:37;;;;;;;28.55;6.88;;;;;;;;;;5079824;28;20107;-75
2022/05/06 09:24:19;;;;;;;28.40;6.90;;;;;;;;;;5080091;28;20483;-76
2022/05/06 09:26:55;;;;;;;24.13;6.28;;;;;;;;;;5073154;28;20040;-75
2022/05/06 09:29:32;;;;;;;26.25;6.25;;;;;;;;;;5080182;28;20032;-76
2022/05/06 09:32:18;;;;;;;26.63;6.43;;;;;;;;;;5080424;28;20571;-75
2022/05/06 09:34:45;;;;;;;24.90;7.50;;;;;;;;;;5079993;28;20485;-75
2022/05/06 09:37:11;;;;;;;35.65;6.93;;;;;;;;;;5080065;28;20068;-75
2022/05/06 09:39:38;;;;;;;27.70;6.75;;;;;;;;;;5079074;28;20028;-75
2022/05/06 09:42:05;;;;;;;30.60;6.20;;;;;;;;;;5080231;28;20063;-75
2022/05/06 09:44:33;;;;;;;29.63;6.32;;;;;;;;;;5079646;28;20394;-75
2022/05/06 09:47:11;;;;;;;28.38;7.00;;;;;;;;;;5079831;28;20282;-75
2022/05/06 09:49:39;;;;;;;21.98;6.55;;;;;;;;;;5078760;28;21013;-75
2022/05/06 09:52:09;;;;;;;32.38;5.93;;;;;;;;;;5078581;28;20040;-76
2022/05/06 09:54:35;;;;;;;34.92;7.22;;;;;;;;;;5079590;28;20089;-76
2022/05/06 09:57:04;;;;;;;20.40;6.18;;;;;;;;;;5079271;28;20671;-76
2022/05/06 09:59:31;;;;;;;34.55;6.75;;;;;;;;;;5079552;28;20084;-75
2022/05/06 10:01:57;;;;;;;27.40;5.50;;;;;;;;;;5078294;28;20032;-75
2022/05/06 10:04:23;;;;;;;26.67;6.20;;;;;;;;;;5080817;28;20518;-76
2022/05/06 10:06:50;;;;;;;40.88;7.43;;;;;;;;;;5082003;28;20038;-74
2022/05/06 10:09:20;;;;;;;27.13;7.60;;;;;;;;;;5081492;28;20498;-74
2022/05/06 10:11:47;;;;;;;33.13;6.35;;;;;;;;;;5081900;28;20024;-73
2022/05/06 10:14:14;;;;;;;27.08;6.40;;;;;;;;;;5072741;28;20024;-75
2022/05/06 10:16:41;;;;;;;26.85;5.97;;;;;;;;;;5077832;28;20020;-74
2022/05/06 10:19:27;;;;;;;22.63;6.25;;;;;;;;;;5078985;28;20052;-74
2022/05/06 10:21:55;;;;;;;41.08;6.45;;;;;;;;;;5078967;28;20464;-73
2022/05/06 10:24:22;;;;;;;27.65;6.03;;;;;;;;;;5078651;28;20028;-74
2022/05/06 10:26:49;;;;;;;29.55;6.93;;;;;;;;;;5078562;28;20016;-75
2022/05/06 10:32:27;;;;;;;22.83;5.32;;;;;;;;;;5075783;28;20059;-74
2022/05/06 10:34:56;;;;;;;23.48;6.03;;;;;;;;;;5072626;28;20020;-74
2022/05/06 10:37:23;;;;;;;25.63;6.07;;;;;;;;;;5078176;28;20032;-74
2022/05/06 10:39:49;;;;;;;21.55;5.40;;;;;;;;;;5078534;28;20034;-75
2022/05/06 10:42:19;;;;;;;20.02;4.90;;;;;;;;;;5078914;28;20542;-75
2022/05/06 10:44:47;;;;;;;22.42;5.63;;;;;;;;;;5078555;28;20036;-77
2022/05/06 10:47:13;;;;;;;25.02;5.88;;;;;;;;;;5078588;28;20032;-74
2022/05/06 10:49:39;;;;;;;26.33;5.75;;;;;;;;;;5078657;28;20032;-74
2022/05/06 10:52:14;;;;;;;24.42;6.35;;;;;;;;;;5078605;28;20036;-74
2022/05/06 10:54:58;;;;;;;26.38;6.25;;;;;;;;;;5078708;28;20027;-74
2022/05/06 10:57:25;;;;;;;24.33;6.72;;;;;;;;;;5073251;28;20020;-74
2022/05/06 10:59:57;;;;;;;30.08;6.18;;;;;;;;;;5078354;28;20110;-74
2022/05/06 11:02:24;;;;;;;31.08;6.18;;;;;;;;;;5078304;28;20622;-75
2022/05/06 11:04:53;;;;;;;23.50;6.10;;;;;;;;;;5078591;28;20150;-74
2022/05/06 11:07:19;;;;;;;35.22;7.63;;;;;;;;;;5074097;28;20549;-74
2022/05/06 11:09:45;;;;;;;25.45;6.85;;;;;;;;;;5082961;28;20020;-74
2022/05/06 11:12:12;;;;;;;28.75;6.95;;;;;;;;;;5082127;28;20042;-75
2022/05/06 11:14:38;;;;;;;23.90;6.72;;;;;;;;;;5082460;28;20016;-74
2022/05/06 11:17:18;;;;;;;36.75;8.93;;;;;;;;;;5080606;28;20032;-73
2022/05/06 11:19:44;;;;;;;69.82;13.60;;;;;;;;;;5082522;28;20098;-75
2022/05/06 11:22:10;;;;;;;44.50;9.60;;;;;;;;;;5082195;28;20040;-74
2022/05/06 11:24:37;;;;;;;30.80;8.10;;;;;;;;;;5075542;28;20464;-78
2022/05/06 11:27:15;;;;;;;22.15;5.65;;;;;;;;;;5080895;28;20670;-78
2022/05/06 11:29:55;;;;;;;23.70;6.00;;;;;;;;;;5075619;28;20529;-76
2022/05/06 11:32:21;;;;;;;28.40;5.70;;;;;;;;;;5082796;28;20028;-75
2022/05/06 11:34:48;;;;;;;22.08;5.45;;;;;;;;;;5084475;28;20514;-76
2022/05/06 11:37:24;;;;;;;9.68;3.45;;;;;;;;;;5084047;28;20028;-74
2022/05/06 11:39:50;;;;;;;9.20;2.35;;;;;;;;;;5078200;28;20016;-74
2022/05/06 11:42:20;;;;;;;8.75;2.30;;;;;;;;;;5084352;28;20430;-74
2022/05/06 11:47:40;;;;;;;9.73;3.10;;;;;;;;;;5081735;28;20047;-74
2022/05/06 11:50:06;;;;;;;13.35;3.45;;;;;;;;;;5081705;28;20262;-73
2022/05/06 11:52:33;;;;;;;7.13;3.17;;;;;;;;;;5081719;28;20040;-74
2022/05/06 11:54:59;;;;;;;8.98;3.75;;;;;;;;;;5081936;28;20020;-74
2022/05/06 11:57:26;;;;;;;7.68;3.47;;;;;;;;;;5081208;28;20020;-74
2022/05/06 11:59:52;;;;;;;15.52;4.88;;;;;;;;;;5081671;28;20023;-73
2022/05/06 12:02:18;;;;;;;9.20;3.78;;;;;;;;;;5081657;28;20036;-75
2022/05/06 12:04:45;;;;;;;6.03;3.20;;;;;;;;;;5081638;28;20039;-74
2022/05/06 12:07:11;;;;;;;4.72;2.97;;;;;;;;;;5081556;28;20048;-73
2022/05/06 12:09:44;;;;;;;5.50;3.08;;;;;;;;;;5081650;28;20107;-74
2022/05/06 12:12:13;;;;;;;8.05;3.30;;;;;;;;;;5081243;28;20043;-74
2022/05/06 12:14:40;;;;;;;10.45;3.40;;;;;;;;;;5081128;28;20037;-74
2022/05/06 12:17:10;;;;;;;12.82;3.50;;;;;;;;;;5081068;28;20618;-74
2022/05/06 12:19:37;;;;;;;9.95;4.47;;;;;;;;;;5081046;28;20488;-74
2022/05/06 12:22:11;;;;;;;17.27;6.05;;;;;;;;;;5081374;28;20077;-74
2022/05/06 12:24:45;;;;;;;14.77;5.32;;;;;;;;;;5081088;28;20035;-75
2022/05/06 12:27:12;;;;;;;18.23;6.65;;;;;;;;;;5074617;28;20103;-74
2022/05/06 12:29:42;;;;;;;19.20;6.38;;;;;;;;;;5081292;28;20035;-75
2022/05/06 12:32:08;;;;;;;12.40;4.55;;;;;;;;;;5073666;28;20050;-74
2022/05/06 12:34:34;;;;;;;12.65;4.78;;;;;;;;;;5077841;28;20396;-73
2022/05/06 12:37:13;;;;;;;11.38;4.25;;;;;;;;;;5080594;28;20664;-74
2022/05/06 12:39:40;;;;;;;8.18;3.58;;;;;;;;;;5081090;28;20028;-74
2022/05/06 12:42:13;;;;;;;7.03;3.72;;;;;;;;;;5080749;28;20123;-74
2022/05/06 12:44:39;;;;;;;6.38;3.40;;;;;;;;;;5080939;28;20380;-74
2022/05/06 12:50:00;;;;;;;12.48;4.75;;;;;;;;;;5081312;28;20161;-74
2022/05/06 12:52:27;;;;;;;13.25;4.60;;;;;;;;;;5080281;28;20375;-74
2022/05/06 12:54:53;;;;;;;9.95;3.97;;;;;;;;;;5079954;28;20024;-74
2022/05/06 12:57:19;;;;;;;8.27;3.63;;;;;;;;;;5080414;28;20740;-74
2022/05/06 12:59:45;;;;;;;7.60;4.30;;;;;;;;;;5080061;28;20028;-74
2022/05/06 13:02:11;;;;;;;12.05;4.28;;;;;;;;;;5080699;28;20036;-71
2022/05/06 13:04:37;;;;;;;7.55;3.85;;;;;;;;;;5075338;28;20020;-72
2022/05/06 13:07:04;;;;;;;9.07;3.90;;;;;;;;;;5080520;28;20036;-72
2022/05/06 13:09:30;;;;;;;12.00;4.03;;;;;;;;;;5080478;28;20024;-78
2022/05/06 13:11:57;;;;;;;9.52;4.22;;;;;;;;;;5079881;28;20047;-79
2022/05/06 13:14:23;;;;;;;8.50;3.92;;;;;;;;;;5074998;28;20441;-79
2022/05/06 13:16:50;;;;;;;12.70;4.13;;;;;;;;;;5080022;28;20028;-80
2022/05/06 13:19:16;;;;;;;13.25;4.22;;;;;;;;;;5081111;28;20024;-84
2022/05/06 13:21:42;;;;;;;9.82;3.65;;;;;;;;;;5079554;28;20089;-77
2022/05/06 13:24:08;;;;;;;10.30;4.20;;;;;;;;;;5079700;28;20093;-78
2022/05/06 13:26:35;;;;;;;12.88;4.57;;;;;;;;;;5080213;28;20821;-77
2022/05/06 13:29:03;;;;;;;6.25;3.80;;;;;;;;;;5078201;28;20825;-73
2022/05/06 13:31:29;;;;;;;9.43;3.25;;;;;;;;;;5072177;28;20123;-72
2022/05/06 13:33:55;;;;;;;10.32;3.63;;;;;;;;;;5078242;28;20141;-72
2022/05/06 13:36:21;;;;;;;5.80;3.25;;;;;;;;;;5078748;28;20035;-72
2022/05/06 13:38:48;;;;;;;7.93;3.40;;;;;;;;;;5074817;28;20093;-72
2022/05/06 13:41:14;;;;;;;10.13;3.63;;;;;;;;;;5078217;28;20028;-72
2022/05/06 13:43:40;;;;;;;7.47;3.45;;;;;;;;;;5074574;28;20047;-74
2022/05/06 13:46:06;;;;;;;10.52;3.75;;;;;;;;;;5078004;28;20038;-73
2022/05/06 13:48:33;;;;;;;8.18;3.97;;;;;;;;;;5078709;28;20032;-73
2022/05/06 13:50:59;;;;;;;10.75;3.50;;;;;;;;;;5078874;28;20024;-73
2022/05/06 13:53:26;;;;;;;12.35;3.42;;;;;;;;;;5078116;28;20032;-73
2022/05/06 14:01:22;;;;;;;8.90;3.35;;;;;;;;;;5079137;28;20047;-74
2022/05/06 14:03:48;;;;;;;10.65;3.63;;;;;;;;;;5079310;28;20027;-73
2022/05/06 14:06:15;;;;;;;7.65;3.45;;;;;;;;;;5079044;28;20035;-74
2022/05/06 14:08:41;;;;;;;10.30;3.47;;;;;;;;;;5079013;28;20036;-74
2022/05/06 14:11:07;;;;;;;5.05;2.95;;;;;;;;;;5079080;28;20027;-73
2022/05/06 14:13:33;;;;;;;10.05;3.60;;;;;;;;;;5077674;28;20036;-74
2022/05/06 14:16:00;;;;;;;7.63;3.28;;;;;;;;;;5079112;28;20030;-74
2022/05/06 14:18:26;;;;;;;9.65;3.58;;;;;;;;;;5078509;28;20023;-73
2022/05/06 14:20:52;;;;;;;7.18;2.78;;;;;;;;;;5072440;28;20126;-74
2022/05/06 14:23:18;;;;;;;9.45;3.30;;;;;;;;;;5077861;28;20047;-74
2022/05/06 14:25:44;;;;;;;9.90;2.90;;;;;;;;;;5077939;28;20416;-74
2022/05/06 14:28:11;;;;;;;9.60;3.40;;;;;;;;;;5079288;28;20046;-73
2022/05/06 14:30:41;;;;;;;7.93;2.92;;;;;;;;;;5077756;28;20107;-74
2022/05/06 14:33:10;;;;;;;9.07;3.50;;;;;;;;;;5077604;28;20036;-73
2022/05/06 14:35:37;;;;;;;6.60;2.78;;;;;;;;;;5075579;28;20024;-73
2022/05/06 14:38:04;;;;;;;12.25;3.28;;;;;;;;;;5078572;28;20028;-73
2022/05/06 14:40:31;;;;;;;8.40;2.78;;;;;;;;;;5077652;28;20024;-74
2022/05/06 14:42:57;;;;;;;8.43;3.10;;;;;;;;;;5078503;28;20020;-73
2022/05/06 14:45:25;;;;;;;9.75;3.00;;;;;;;;;;5081857;28;20110;-73
2022/05/06 14:47:51;;;;;;;9.80;2.35;;;;;;;;;;5079233;28;20056;-73
2022/05/06 14:50:17;;;;;;;8.60;2.67;;;;;;;;;;5077319;28;20450;-73
2022/05/06 14:52:45;;;;;;;8.45;3.00;;;;;;;;;;5077891;28;20032;-74
2022/05/06 14:55:11;;;;;;;7.45;2.50;;;;;;;;;;5077926;28;20028;-73
2022/05/06 14:57:37;;;;;;;11.13;3.03;;;;;;;;;;5078645;28;20514;-74
2022/05/06 15:00:07;;;;;;;9.63;3.05;;;;;;;;;;5078991;28;20028;-73
2022/05/06 15:02:34;;;;;;;9.27;3.22;;;;;;;;;;5077611;28;20051;-73
2022/05/06 15:05:00;;;;;;;9.98;3.70;;;;;;;;;;5078874;28;20024;-73
2022/05/06 15:07:26;;;;;;;5.03;2.83;;;;;;;;;;5078310;28;20070;-74
2022/05/06 15:09:52;;;;;;;8.68;2.65;;;;;;;;;;5078202;28;20174;-73
2022/05/06 15:12:19;;;;;;;11.10;2.78;;;;;;;;;;5078089;28;20098;-73
2022/05/06 15:14:45;;;;;;;7.55;2.67;;;;;;;;;;5078104;28;20044;-74
2022/05/06 15:17:15;;;;;;;9.15;3.28;;;;;;;;;;5077204;28;20241;-73
2022/05/06 15:19:42;;;;;;;8.00;2.28;;;;;;;;;;5068877;28;20040;-74
2022/05/06 15:22:08;;;;;;;7.53;2.85;;;;;;;;;;5066895;28;20055;-73